Terminal Aerodrome Forecast
Issued by NWS Portland, OR

Home | Current Version | Previous Version | Text Only | Print | Product List | Glossary On
Versions: 1 2 3 4 5 6 7 8 9 10 11 12 13 14 15 16 17 18 19 20 21 22 23 24 25 26 27 28 29 30 31 32 33 34 35 36 37 38 39 40 41 42 43 44 45 46 47 48 49 50
000
FTUS46 KPQR 261725
TAFPDX
TAF
KPDX 261725Z 2618/2718 15006KT P6SM SCT040 OVC100
     FM262200 16005KT P6SM -RA OVC050
     FM270400 16004KT P6SM -DZ BKN060 OVC080
     FM271000 00000KT P6SM BKN100
     FM271700 VRB03KT P6SM SCT250=

USA.gov is the U.S. government's official web portal to all federal, state and local government web resources and services.